sensor_id;sensor_type;location;lat;lon;timestamp;pressure;altitude;pressure_sealevel;temperature;humidity
52935;BME280;38802;50.198;19.796;2022-07-23T00:00:30;96302.95;;;22.57;51.42
52935;BME280;38802;50.198;19.796;2022-07-23T00:03:06;96304.83;;;22.56;51.10
52935;BME280;38802;50.198;19.796;2022-07-23T00:05:32;96300.72;;;22.55;51.06
52935;BME280;38802;50.198;19.796;2022-07-23T00:08:01;96301.40;;;22.53;50.95
52935;BME280;38802;50.198;19.796;2022-07-23T00:10:28;96303.68;;;22.52;50.74
52935;BME280;38802;50.198;19.796;2022-07-23T00:12:55;96307.76;;;22.51;50.49
52935;BME280;38802;50.198;19.796;2022-07-23T00:15:22;96304.98;;;22.49;50.57
52935;BME280;38802;50.198;19.796;2022-07-23T00:17:50;96301.50;;;22.47;50.40
52935;BME280;38802;50.198;19.796;2022-07-23T00:20:17;96297.92;;;22.43;50.41
52935;BME280;38802;50.198;19.796;2022-07-23T00:22:51;96298.45;;;22.40;50.41
52935;BME280;38802;50.198;19.796;2022-07-23T00:25:20;96306.53;;;22.37;50.22
52935;BME280;38802;50.198;19.796;2022-07-23T00:27:58;96309.50;;;22.34;50.11
52935;BME280;38802;50.198;19.796;2022-07-23T00:30:27;96313.94;;;22.31;50.07
52935;BME280;38802;50.198;19.796;2022-07-23T00:33:01;96314.66;;;22.28;50.07
52935;BME280;38802;50.198;19.796;2022-07-23T00:35:31;96314.13;;;22.28;49.89
52935;BME280;38802;50.198;19.796;2022-07-23T00:37:59;96314.30;;;22.29;49.80
52935;BME280;38802;50.198;19.796;2022-07-23T00:40:27;96315.48;;;22.31;49.66
52935;BME280;38802;50.198;19.796;2022-07-23T00:42:55;96313.09;;;22.32;49.56
52935;BME280;38802;50.198;19.796;2022-07-23T00:45:22;96313.24;;;22.32;49.44
52935;BME280;38802;50.198;19.796;2022-07-23T00:47:49;96315.28;;;22.31;49.39
52935;BME280;38802;50.198;19.796;2022-07-23T00:50:16;96310.29;;;22.29;49.41
52935;BME280;38802;50.198;19.796;2022-07-23T00:52:43;96311.72;;;22.27;49.28
52935;BME280;38802;50.198;19.796;2022-07-23T00:55:10;96305.83;;;22.25;49.27
52935;BME280;38802;50.198;19.796;2022-07-23T00:57:39;96302.87;;;22.21;49.19
52935;BME280;38802;50.198;19.796;2022-07-23T01:00:09;96305.96;;;22.18;49.32
52935;BME280;38802;50.198;19.796;2022-07-23T01:02:37;96309.13;;;22.14;49.30
52935;BME280;38802;50.198;19.796;2022-07-23T01:05:05;96309.56;;;22.10;49.35
52935;BME280;38802;50.198;19.796;2022-07-23T01:07:33;96312.88;;;22.04;49.34
52935;BME280;38802;50.198;19.796;2022-07-23T01:10:00;96307.85;;;22.01;49.38
52935;BME280;38802;50.198;19.796;2022-07-23T01:12:27;96306.60;;;21.96;49.39
52935;BME280;38802;50.198;19.796;2022-07-23T01:14:55;96308.63;;;21.93;49.45
52935;BME280;38802;50.198;19.796;2022-07-23T01:17:23;96308.31;;;21.90;49.33
52935;BME280;38802;50.198;19.796;2022-07-23T01:19:49;96303.77;;;21.87;49.65
52935;BME280;38802;50.198;19.796;2022-07-23T01:22:18;96299.34;;;21.83;49.67
52935;BME280;38802;50.198;19.796;2022-07-23T01:24:46;96297.35;;;21.77;49.72
52935;BME280;38802;50.198;19.796;2022-07-23T01:27:13;96297.57;;;21.73;49.71
52935;BME280;38802;50.198;19.796;2022-07-23T01:29:41;96296.70;;;21.69;49.86
52935;BME280;38802;50.198;19.796;2022-07-23T01:32:14;96297.77;;;21.64;50.03
52935;BME280;38802;50.198;19.796;2022-07-23T01:34:41;96298.19;;;21.59;50.12
52935;BME280;38802;50.198;19.796;2022-07-23T01:37:08;96296.27;;;21.55;50.23
52935;BME280;38802;50.198;19.796;2022-07-23T01:39:35;96299.30;;;21.51;50.41
52935;BME280;38802;50.198;19.796;2022-07-23T01:42:02;96304.83;;;21.46;50.65
52935;BME280;38802;50.198;19.796;2022-07-23T01:44:30;96305.07;;;21.42;50.67
52935;BME280;38802;50.198;19.796;2022-07-23T01:46:57;96308.63;;;21.37;50.82
52935;BME280;38802;50.198;19.796;2022-07-23T01:49:24;96308.49;;;21.31;50.84
52935;BME280;38802;50.198;19.796;2022-07-23T01:51:56;96302.14;;;21.27;51.02
52935;BME280;38802;50.198;19.796;2022-07-23T01:54:32;96302.54;;;21.22;51.03
52935;BME280;38802;50.198;19.796;2022-07-23T01:57:00;96300.01;;;21.18;51.24
52935;BME280;38802;50.198;19.796;2022-07-23T01:59:28;96300.55;;;21.14;51.37
52935;BME280;38802;50.198;19.796;2022-07-23T02:01:55;96297.81;;;21.10;51.58
52935;BME280;38802;50.198;19.796;2022-07-23T02:04:23;96300.08;;;21.07;51.54
52935;BME280;38802;50.198;19.796;2022-07-23T02:06:52;96296.41;;;21.03;51.78
52935;BME280;38802;50.198;19.796;2022-07-23T02:09:19;96294.95;;;20.99;51.83
52935;BME280;38802;50.198;19.796;2022-07-23T02:11:46;96297.52;;;20.95;52.03
52935;BME280;38802;50.198;19.796;2022-07-23T02:14:13;96296.97;;;20.93;52.20
52935;BME280;38802;50.198;19.796;2022-07-23T02:16:40;96297.80;;;20.90;52.40
52935;BME280;38802;50.198;19.796;2022-07-23T02:19:07;96299.02;;;20.89;52.47
52935;BME280;38802;50.198;19.796;2022-07-23T02:21:36;96299.92;;;20.87;52.62
52935;BME280;38802;50.198;19.796;2022-07-23T02:24:04;96303.27;;;20.86;52.74
52935;BME280;38802;50.198;19.796;2022-07-23T02:26:31;96307.15;;;20.83;52.81
52935;BME280;38802;50.198;19.796;2022-07-23T02:29:04;96304.95;;;20.81;52.93
52935;BME280;38802;50.198;19.796;2022-07-23T02:31:32;96307.11;;;20.79;53.10
52935;BME280;38802;50.198;19.796;2022-07-23T02:34:00;96305.45;;;20.77;53.24
52935;BME280;38802;50.198;19.796;2022-07-23T02:36:27;96305.84;;;20.74;53.34
52935;BME280;38802;50.198;19.796;2022-07-23T02:38:55;96301.39;;;20.69;53.44
52935;BME280;38802;50.198;19.796;2022-07-23T02:41:22;96302.05;;;20.66;53.62
52935;BME280;38802;50.198;19.796;2022-07-23T02:43:49;96303.47;;;20.61;53.63
52935;BME280;38802;50.198;19.796;2022-07-23T02:46:16;96302.69;;;20.58;53.69
52935;BME280;38802;50.198;19.796;2022-07-23T02:48:43;96305.99;;;20.54;53.75
52935;BME280;38802;50.198;19.796;2022-07-23T02:51:10;96309.90;;;20.51;53.84
52935;BME280;38802;50.198;19.796;2022-07-23T02:53:44;96307.15;;;20.49;53.87
52935;BME280;38802;50.198;19.796;2022-07-23T02:56:11;96309.33;;;20.47;54.04
52935;BME280;38802;50.198;19.796;2022-07-23T02:58:37;96309.94;;;20.46;54.10
52935;BME280;38802;50.198;19.796;2022-07-23T03:01:05;96311.87;;;20.45;54.41
52935;BME280;38802;50.198;19.796;2022-07-23T03:03:32;96312.95;;;20.43;54.54
52935;BME280;38802;50.198;19.796;2022-07-23T03:05:59;96305.86;;;20.40;54.49
52935;BME280;38802;50.198;19.796;2022-07-23T03:08:26;96301.77;;;20.37;54.59
52935;BME280;38802;50.198;19.796;2022-07-23T03:10:53;96302.54;;;20.35;54.70
52935;BME280;38802;50.198;19.796;2022-07-23T03:13:20;96301.45;;;20.32;54.79
52935;BME280;38802;50.198;19.796;2022-07-23T03:15:47;96302.56;;;20.31;54.92
52935;BME280;38802;50.198;19.796;2022-07-23T03:18:15;96298.81;;;20.30;54.99
52935;BME280;38802;50.198;19.796;2022-07-23T03:20:42;96299.21;;;20.29;54.95
52935;BME280;38802;50.198;19.796;2022-07-23T03:23:10;96298.39;;;20.29;55.09
52935;BME280;38802;50.198;19.796;2022-07-23T03:25:37;96294.36;;;20.29;55.05
52935;BME280;38802;50.198;19.796;2022-07-23T03:28:04;96294.23;;;20.28;55.17
52935;BME280;38802;50.198;19.796;2022-07-23T03:30:31;96297.05;;;20.28;55.16
52935;BME280;38802;50.198;19.796;2022-07-23T03:32:58;96294.43;;;20.28;55.22
52935;BME280;38802;50.198;19.796;2022-07-23T03:35:25;96289.50;;;20.28;55.27
52935;BME280;38802;50.198;19.796;2022-07-23T03:38:10;96293.42;;;20.28;55.41
52935;BME280;38802;50.198;19.796;2022-07-23T03:40:38;96293.24;;;20.28;55.45
52935;BME280;38802;50.198;19.796;2022-07-23T03:43:04;96291.95;;;20.28;55.47
52935;BME280;38802;50.198;19.796;2022-07-23T03:45:31;96293.42;;;20.29;55.43
52935;BME280;38802;50.198;19.796;2022-07-23T03:47:59;96295.70;;;20.29;55.59
52935;BME280;38802;50.198;19.796;2022-07-23T03:50:26;96296.73;;;20.29;55.63
52935;BME280;38802;50.198;19.796;2022-07-23T03:52:53;96295.17;;;20.29;55.69
52935;BME280;38802;50.198;19.796;2022-07-23T03:55:20;96295.23;;;20.30;55.72
52935;BME280;38802;50.198;19.796;2022-07-23T03:57:47;96294.52;;;20.32;55.78
52935;BME280;38802;50.198;19.796;2022-07-23T04:00:14;96292.17;;;20.33;55.85
52935;BME280;38802;50.198;19.796;2022-07-23T04:02:41;96293.17;;;20.35;55.96
52935;BME280;38802;50.198;19.796;2022-07-23T04:05:10;96295.48;;;20.37;56.03
52935;BME280;38802;50.198;19.796;2022-07-23T04:07:38;96297.53;;;20.39;56.05
52935;BME280;38802;50.198;19.796;2022-07-23T04:10:06;96296.97;;;20.41;56.16
52935;BME280;38802;50.198;19.796;2022-07-23T04:12:33;96296.38;;;20.43;56.29
52935;BME280;38802;50.198;19.796;2022-07-23T04:15:00;96298.23;;;20.45;56.18
52935;BME280;38802;50.198;19.796;2022-07-23T04:17:27;96298.17;;;20.47;56.13
52935;BME280;38802;50.198;19.796;2022-07-23T04:19:54;96293.23;;;20.50;56.22
52935;BME280;38802;50.198;19.796;2022-07-23T04:22:41;96285.02;;;20.54;56.20
52935;BME280;38802;50.198;19.796;2022-07-23T04:25:08;96279.88;;;20.57;56.26
52935;BME280;38802;50.198;19.796;2022-07-23T04:27:36;96276.14;;;20.61;56.33
52935;BME280;38802;50.198;19.796;2022-07-23T04:30:03;96277.92;;;20.65;56.47
52935;BME280;38802;50.198;19.796;2022-07-23T04:32:30;96279.35;;;20.69;56.47
52935;BME280;38802;50.198;19.796;2022-07-23T04:34:58;96282.14;;;20.76;56.39
52935;BME280;38802;50.198;19.796;2022-07-23T04:37:24;96277.17;;;20.81;56.52
52935;BME280;38802;50.198;19.796;2022-07-23T04:39:52;96272.63;;;20.88;56.46
52935;BME280;38802;50.198;19.796;2022-07-23T04:42:19;96269.59;;;20.97;56.71
52935;BME280;38802;50.198;19.796;2022-07-23T04:44:45;96273.05;;;21.08;56.68
52935;BME280;38802;50.198;19.796;2022-07-23T04:47:13;96275.05;;;21.18;56.72
52935;BME280;38802;50.198;19.796;2022-07-23T04:49:41;96277.54;;;21.30;56.87
52935;BME280;38802;50.198;19.796;2022-07-23T04:52:08;96276.64;;;21.42;56.94
52935;BME280;38802;50.198;19.796;2022-07-23T04:54:36;96272.92;;;21.52;56.86
52935;BME280;38802;50.198;19.796;2022-07-23T04:57:03;96273.23;;;21.62;56.74
52935;BME280;38802;50.198;19.796;2022-07-23T04:59:30;96275.55;;;21.74;56.74
52935;BME280;38802;50.198;19.796;2022-07-23T05:02:00;96274.34;;;21.87;56.82
52935;BME280;38802;50.198;19.796;2022-07-23T05:04:27;96265.48;;;22.00;56.89
52935;BME280;38802;50.198;19.796;2022-07-23T05:06:59;96267.59;;;22.15;56.83
52935;BME280;38802;50.198;19.796;2022-07-23T05:09:26;96269.80;;;22.32;56.94
52935;BME280;38802;50.198;19.796;2022-07-23T05:11:53;96267.73;;;22.51;56.78
52935;BME280;38802;50.198;19.796;2022-07-23T05:14:21;96267.23;;;22.71;56.73
52935;BME280;38802;50.198;19.796;2022-07-23T05:16:48;96261.89;;;22.89;56.73
52935;BME280;38802;50.198;19.796;2022-07-23T05:19:20;96263.37;;;23.11;56.71
52935;BME280;38802;50.198;19.796;2022-07-23T05:21:51;96263.83;;;23.37;56.37
52935;BME280;38802;50.198;19.796;2022-07-23T05:24:19;96264.94;;;23.63;56.20
52935;BME280;38802;50.198;19.796;2022-07-23T05:26:46;96273.83;;;23.90;55.96
52935;BME280;38802;50.198;19.796;2022-07-23T05:29:14;96272.23;;;24.20;55.73
52935;BME280;38802;50.198;19.796;2022-07-23T05:31:41;96272.43;;;24.51;55.52
52935;BME280;38802;50.198;19.796;2022-07-23T05:34:09;96272.21;;;24.81;55.01
52935;BME280;38802;50.198;19.796;2022-07-23T05:36:43;96265.94;;;25.10;54.21
52935;BME280;38802;50.198;19.796;2022-07-23T05:39:10;96267.13;;;25.38;53.31
52935;BME280;38802;50.198;19.796;2022-07-23T05:41:37;96267.80;;;25.62;52.77
52935;BME280;38802;50.198;19.796;2022-07-23T05:44:04;96263.61;;;25.70;52.34
52935;BME280;38802;50.198;19.796;2022-07-23T05:46:32;96267.09;;;25.78;52.25
52935;BME280;38802;50.198;19.796;2022-07-23T05:49:03;96264.71;;;25.94;51.94
52935;BME280;38802;50.198;19.796;2022-07-23T05:52:04;96265.52;;;25.99;51.60
52935;BME280;38802;50.198;19.796;2022-07-23T05:54:44;96263.45;;;25.89;51.50
52935;BME280;38802;50.198;19.796;2022-07-23T05:57:12;96263.11;;;25.86;51.55
52935;BME280;38802;50.198;19.796;2022-07-23T05:59:40;96264.15;;;25.93;51.74
52935;BME280;38802;50.198;19.796;2022-07-23T06:02:07;96262.09;;;26.07;51.78
52935;BME280;38802;50.198;19.796;2022-07-23T06:04:34;96260.38;;;26.27;51.15
52935;BME280;38802;50.198;19.796;2022-07-23T06:07:30;96257.59;;;26.56;51.22
52935;BME280;38802;50.198;19.796;2022-07-23T06:09:57;96253.44;;;26.79;51.11
52935;BME280;38802;50.198;19.796;2022-07-23T06:12:24;96251.44;;;27.01;50.35
52935;BME280;38802;50.198;19.796;2022-07-23T06:14:52;96247.90;;;27.25;48.02
52935;BME280;38802;50.198;19.796;2022-07-23T06:17:19;96248.05;;;27.50;48.09
52935;BME280;38802;50.198;19.796;2022-07-23T06:19:47;96246.31;;;27.75;47.77
52935;BME280;38802;50.198;19.796;2022-07-23T06:22:15;96244.76;;;27.97;46.37
52935;BME280;38802;50.198;19.796;2022-07-23T06:24:42;96237.17;;;28.18;45.66
52935;BME280;38802;50.198;19.796;2022-07-23T06:27:09;96234.40;;;28.41;44.40
52935;BME280;38802;50.198;19.796;2022-07-23T06:29:35;96235.02;;;28.59;44.50
52935;BME280;38802;50.198;19.796;2022-07-23T06:32:03;96231.85;;;28.78;44.02
52935;BME280;38802;50.198;19.796;2022-07-23T06:34:30;96230.84;;;28.99;43.01
52935;BME280;38802;50.198;19.796;2022-07-23T06:36:56;96223.73;;;29.19;42.42
52935;BME280;38802;50.198;19.796;2022-07-23T06:39:26;96223.23;;;29.34;40.71
52935;BME280;38802;50.198;19.796;2022-07-23T06:41:53;96221.58;;;29.45;39.79
52935;BME280;38802;50.198;19.796;2022-07-23T06:44:53;96224.23;;;29.58;40.42
52935;BME280;38802;50.198;19.796;2022-07-23T06:47:20;96219.27;;;29.72;40.36
52935;BME280;38802;50.198;19.796;2022-07-23T06:49:47;96225.99;;;29.84;39.86
52935;BME280;38802;50.198;19.796;2022-07-23T06:52:14;96225.19;;;29.98;40.03
52935;BME280;38802;50.198;19.796;2022-07-23T06:54:41;96219.21;;;30.12;39.41
52935;BME280;38802;50.198;19.796;2022-07-23T06:57:08;96219.75;;;30.12;38.38
52935;BME280;38802;50.198;19.796;2022-07-23T06:59:36;96223.45;;;30.16;38.21
52935;BME280;38802;50.198;19.796;2022-07-23T07:02:07;96218.52;;;30.27;38.64
52935;BME280;38802;50.198;19.796;2022-07-23T07:04:34;96219.80;;;30.38;38.57
52935;BME280;38802;50.198;19.796;2022-07-23T07:07:01;96218.13;;;30.51;38.43
52935;BME280;38802;50.198;19.796;2022-07-23T07:09:28;96213.35;;;30.60;38.04
52935;BME280;38802;50.198;19.796;2022-07-23T07:11:55;96208.14;;;30.71;38.50
52935;BME280;38802;50.198;19.796;2022-07-23T07:14:23;96206.42;;;30.80;37.73
52935;BME280;38802;50.198;19.796;2022-07-23T07:16:49;96211.20;;;30.90;36.93
52935;BME280;38802;50.198;19.796;2022-07-23T07:19:16;96213.65;;;30.93;37.18
52935;BME280;38802;50.198;19.796;2022-07-23T07:21:43;96213.65;;;30.93;37.24
52935;BME280;38802;50.198;19.796;2022-07-23T07:24:10;96213.39;;;31.01;37.60
52935;BME280;38802;50.198;19.796;2022-07-23T07:26:37;96211.27;;;31.10;37.27
52935;BME280;38802;50.198;19.796;2022-07-23T07:29:06;96207.37;;;31.18;37.14
52935;BME280;38802;50.198;19.796;2022-07-23T07:31:33;96204.58;;;31.29;36.62
52935;BME280;38802;50.198;19.796;2022-07-23T07:34:00;96196.12;;;31.35;36.36
52935;BME280;38802;50.198;19.796;2022-07-23T07:36:26;96195.50;;;31.39;36.23
52935;BME280;38802;50.198;19.796;2022-07-23T07:38:54;96194.38;;;31.41;36.35
52935;BME280;38802;50.198;19.796;2022-07-23T07:41:21;96193.61;;;31.48;36.80
52935;BME280;38802;50.198;19.796;2022-07-23T07:43:50;96199.83;;;31.59;36.18
52935;BME280;38802;50.198;19.796;2022-07-23T07:46:17;96203.18;;;31.61;35.95
52935;BME280;38802;50.198;19.796;2022-07-23T07:48:44;96202.52;;;31.61;36.24
52935;BME280;38802;50.198;19.796;2022-07-23T07:51:11;96202.62;;;31.58;36.33
52935;BME280;38802;50.198;19.796;2022-07-23T07:53:38;96201.52;;;31.63;36.39
52935;BME280;38802;50.198;19.796;2022-07-23T07:56:06;96208.67;;;31.63;36.18
52935;BME280;38802;50.198;19.796;2022-07-23T07:58:34;96213.50;;;31.57;36.49
52935;BME280;38802;50.198;19.796;2022-07-23T08:01:01;96215.91;;;31.55;36.86
52935;BME280;38802;50.198;19.796;2022-07-23T08:03:29;96217.70;;;31.65;37.33
52935;BME280;38802;50.198;19.796;2022-07-23T08:05:57;96217.81;;;31.77;37.20
52935;BME280;38802;50.198;19.796;2022-07-23T08:08:24;96224.42;;;31.81;37.05
52935;BME280;38802;50.198;19.796;2022-07-23T08:10:51;96224.60;;;31.75;37.22
52935;BME280;38802;50.198;19.796;2022-07-23T08:13:18;96228.84;;;31.79;37.28
52935;BME280;38802;50.198;19.796;2022-07-23T08:15:44;96229.52;;;31.87;37.12
52935;BME280;38802;50.198;19.796;2022-07-23T08:18:13;96226.50;;;31.86;36.97
52935;BME280;38802;50.198;19.796;2022-07-23T08:20:40;96225.39;;;31.90;37.68
52935;BME280;38802;50.198;19.796;2022-07-23T08:23:08;96231.52;;;32.01;37.14
52935;BME280;38802;50.198;19.796;2022-07-23T08:25:41;96229.60;;;32.03;37.35
52935;BME280;38802;50.198;19.796;2022-07-23T08:28:10;96230.52;;;32.09;37.67
52935;BME280;38802;50.198;19.796;2022-07-23T08:30:39;96231.08;;;32.22;37.85
52935;BME280;38802;50.198;19.796;2022-07-23T08:33:07;96233.48;;;32.27;37.45
52935;BME280;38802;50.198;19.796;2022-07-23T08:35:40;96239.44;;;32.32;37.35
52935;BME280;38802;50.198;19.796;2022-07-23T08:38:09;96238.85;;;32.35;37.55
52935;BME280;38802;50.198;19.796;2022-07-23T08:40:40;96235.02;;;32.36;36.70
52935;BME280;38802;50.198;19.796;2022-07-23T08:43:12;96226.40;;;32.35;36.97
52935;BME280;38802;50.198;19.796;2022-07-23T08:45:42;96225.48;;;32.24;37.12
52935;BME280;38802;50.198;19.796;2022-07-23T08:48:13;96225.11;;;32.17;37.13
52935;BME280;38802;50.198;19.796;2022-07-23T08:50:45;96226.70;;;32.13;37.18
52935;BME280;38802;50.198;19.796;2022-07-23T08:53:14;96218.99;;;32.06;37.19
52935;BME280;38802;50.198;19.796;2022-07-23T08:55:45;96212.11;;;31.97;37.40
52935;BME280;38802;50.198;19.796;2022-07-23T08:58:13;96204.59;;;31.93;37.55
52935;BME280;38802;50.198;19.796;2022-07-23T09:00:41;96201.80;;;31.94;38.06
52935;BME280;38802;50.198;19.796;2022-07-23T09:03:14;96196.76;;;32.00;37.92
52935;BME280;38802;50.198;19.796;2022-07-23T09:05:42;96192.73;;;31.93;37.41
52935;BME280;38802;50.198;19.796;2022-07-23T09:13:29;96202.17;;;31.94;37.24
52935;BME280;38802;50.198;19.796;2022-07-23T09:18:29;96202.54;;;31.91;37.20
52935;BME280;38802;50.198;19.796;2022-07-23T09:21:17;96207.48;;;31.89;37.40
52935;BME280;38802;50.198;19.796;2022-07-23T09:23:45;96209.23;;;31.91;37.21
52935;BME280;38802;50.198;19.796;2022-07-23T09:26:19;96209.14;;;31.97;36.91
52935;BME280;38802;50.198;19.796;2022-07-23T09:31:20;96203.63;;;32.04;36.43
52935;BME280;38802;50.198;19.796;2022-07-23T09:33:47;96200.38;;;32.02;35.84
52935;BME280;38802;50.198;19.796;2022-07-23T09:36:14;96196.98;;;32.01;35.19
52935;BME280;38802;50.198;19.796;2022-07-23T09:38:49;96188.67;;;31.90;35.44
52935;BME280;38802;50.198;19.796;2022-07-23T09:41:17;96191.20;;;31.85;35.14
52935;BME280;38802;50.198;19.796;2022-07-23T09:43:44;96195.25;;;31.87;34.59
52935;BME280;38802;50.198;19.796;2022-07-23T09:46:24;96192.30;;;31.91;35.06
52935;BME280;38802;50.198;19.796;2022-07-23T09:48:54;96194.29;;;32.04;35.49
52935;BME280;38802;50.198;19.796;2022-07-23T09:51:24;96195.18;;;32.16;35.46
52935;BME280;38802;50.198;19.796;2022-07-23T09:54:04;96195.14;;;32.28;34.81
52935;BME280;38802;50.198;19.796;2022-07-23T09:56:33;96186.98;;;32.36;34.93
52935;BME280;38802;50.198;19.796;2022-07-23T09:59:03;96187.52;;;32.44;34.22
52935;BME280;38802;50.198;19.796;2022-07-23T10:01:33;96187.64;;;32.43;34.08
52935;BME280;38802;50.198;19.796;2022-07-23T10:04:01;96189.27;;;32.47;34.60
52935;BME280;38802;50.198;19.796;2022-07-23T10:07:03;96184.20;;;32.50;34.48
52935;BME280;38802;50.198;19.796;2022-07-23T10:09:50;96187.61;;;32.53;34.86
52935;BME280;38802;50.198;19.796;2022-07-23T10:12:37;96186.02;;;32.47;34.69
52935;BME280;38802;50.198;19.796;2022-07-23T10:15:14;96182.23;;;32.44;34.79
52935;BME280;38802;50.198;19.796;2022-07-23T10:17:42;96183.86;;;32.44;34.91
52935;BME280;38802;50.198;19.796;2022-07-23T10:20:09;96183.64;;;32.42;34.08
52935;BME280;38802;50.198;19.796;2022-07-23T10:22:39;96178.83;;;32.23;33.78
52935;BME280;38802;50.198;19.796;2022-07-23T10:33:24;96178.36;;;32.28;34.37
52935;BME280;38802;50.198;19.796;2022-07-23T10:38:42;96172.05;;;32.47;33.05
52935;BME280;38802;50.198;19.796;2022-07-23T10:41:14;96167.50;;;32.37;33.48
52935;BME280;38802;50.198;19.796;2022-07-23T10:43:41;96170.23;;;32.29;33.86
52935;BME280;38802;50.198;19.796;2022-07-23T10:46:23;96174.30;;;32.25;34.09
52935;BME280;38802;50.198;19.796;2022-07-23T10:49:24;96170.81;;;32.17;34.24
52935;BME280;38802;50.198;19.796;2022-07-23T10:52:16;96162.69;;;32.12;33.13
52935;BME280;38802;50.198;19.796;2022-07-23T10:54:53;96163.89;;;32.05;33.33
52935;BME280;38802;50.198;19.796;2022-07-23T10:57:25;96156.81;;;32.09;32.63
52935;BME280;38802;50.198;19.796;2022-07-23T11:02:32;96151.32;;;32.09;33.80
52935;BME280;38802;50.198;19.796;2022-07-23T11:05:10;96154.78;;;32.14;33.96
52935;BME280;38802;50.198;19.796;2022-07-23T11:24:07;96148.62;;;31.85;34.55
52935;BME280;38802;50.198;19.796;2022-07-23T11:37:09;96138.36;;;31.96;34.76
52935;BME280;38802;50.198;19.796;2022-07-23T11:39:37;96136.31;;;31.97;34.47
52935;BME280;38802;50.198;19.796;2022-07-23T11:42:08;96131.72;;;31.91;34.41
52935;BME280;38802;50.198;19.796;2022-07-23T11:44:37;96130.61;;;31.85;34.41
52935;BME280;38802;50.198;19.796;2022-07-23T11:47:09;96128.02;;;31.82;34.37
52935;BME280;38802;50.198;19.796;2022-07-23T11:49:36;96120.99;;;31.79;34.67
52935;BME280;38802;50.198;19.796;2022-07-23T11:52:14;96121.32;;;31.71;34.33
52935;BME280;38802;50.198;19.796;2022-07-23T11:54:53;96117.99;;;31.66;34.73
52935;BME280;38802;50.198;19.796;2022-07-23T11:57:28;96114.79;;;31.69;34.81
52935;BME280;38802;50.198;19.796;2022-07-23T12:00:02;96112.19;;;31.73;34.69
52935;BME280;38802;50.198;19.796;2022-07-23T12:02:43;96106.52;;;31.71;34.25
52935;BME280;38802;50.198;19.796;2022-07-23T12:05:15;96102.48;;;31.61;34.41
52935;BME280;38802;50.198;19.796;2022-07-23T12:07:43;96098.42;;;31.55;34.69
52935;BME280;38802;50.198;19.796;2022-07-23T12:10:14;96093.40;;;31.52;34.82
52935;BME280;38802;50.198;19.796;2022-07-23T12:12:53;96095.77;;;31.51;35.10
52935;BME280;38802;50.198;19.796;2022-07-23T12:15:31;96092.21;;;31.52;35.11
52935;BME280;38802;50.198;19.796;2022-07-23T12:18:00;96085.23;;;31.57;34.86
52935;BME280;38802;50.198;19.796;2022-07-23T12:20:30;96084.27;;;31.63;34.89
52935;BME280;38802;50.198;19.796;2022-07-23T12:23:01;96084.55;;;31.68;35.20
52935;BME280;38802;50.198;19.796;2022-07-23T12:25:33;96083.29;;;31.70;35.08
52935;BME280;38802;50.198;19.796;2022-07-23T12:28:03;96083.39;;;31.70;34.94
52935;BME280;38802;50.198;19.796;2022-07-23T12:30:53;96077.77;;;31.73;34.84
52935;BME280;38802;50.198;19.796;2022-07-23T12:33:39;96074.45;;;31.71;34.46
52935;BME280;38802;50.198;19.796;2022-07-23T12:36:09;96070.57;;;31.66;34.42
52935;BME280;38802;50.198;19.796;2022-07-23T12:38:41;96072.92;;;31.65;34.81
52935;BME280;38802;50.198;19.796;2022-07-23T12:41:09;96073.20;;;31.64;34.88
52935;BME280;38802;50.198;19.796;2022-07-23T12:43:39;96068.33;;;31.62;34.85
52935;BME280;38802;50.198;19.796;2022-07-23T12:46:18;96062.79;;;31.62;34.85
52935;BME280;38802;50.198;19.796;2022-07-23T12:51:20;96057.19;;;31.64;34.54
52935;BME280;38802;50.198;19.796;2022-07-23T12:53:50;96057.66;;;31.68;34.81
52935;BME280;38802;50.198;19.796;2022-07-23T12:56:29;96052.73;;;31.71;34.54
52935;BME280;38802;50.198;19.796;2022-07-23T12:58:57;96053.08;;;31.68;34.33
52935;BME280;38802;50.198;19.796;2022-07-23T13:01:28;96052.71;;;31.61;34.19
52935;BME280;38802;50.198;19.796;2022-07-23T13:04:18;96050.20;;;31.53;34.12
52935;BME280;38802;50.198;19.796;2022-07-23T13:06:47;96046.17;;;31.45;34.14
52935;BME280;38802;50.198;19.796;2022-07-23T13:09:19;96043.29;;;31.38;34.28
52935;BME280;38802;50.198;19.796;2022-07-23T13:11:47;96043.85;;;31.31;34.32
52935;BME280;38802;50.198;19.796;2022-07-23T13:14:16;96042.18;;;31.23;34.39
52935;BME280;38802;50.198;19.796;2022-07-23T13:16:43;96037.74;;;31.21;34.49
52935;BME280;38802;50.198;19.796;2022-07-23T13:19:12;96038.52;;;31.15;34.47
52935;BME280;38802;50.198;19.796;2022-07-23T13:21:41;96035.52;;;31.04;34.52
52935;BME280;38802;50.198;19.796;2022-07-23T13:24:12;96037.29;;;30.93;34.71
52935;BME280;38802;50.198;19.796;2022-07-23T13:26:39;96033.15;;;30.85;34.81
52935;BME280;38802;50.198;19.796;2022-07-23T13:29:07;96032.02;;;30.79;34.92
52935;BME280;38802;50.198;19.796;2022-07-23T13:31:37;96031.54;;;30.74;35.39
52935;BME280;38802;50.198;19.796;2022-07-23T13:34:05;96031.13;;;30.70;35.62
52935;BME280;38802;50.198;19.796;2022-07-23T13:36:35;96030.33;;;30.63;35.90
52935;BME280;38802;50.198;19.796;2022-07-23T13:39:04;96027.95;;;30.57;35.71
52935;BME280;38802;50.198;19.796;2022-07-23T13:41:37;96020.80;;;30.52;35.88
52935;BME280;38802;50.198;19.796;2022-07-23T13:44:04;96014.20;;;30.53;36.32
52935;BME280;38802;50.198;19.796;2022-07-23T13:46:34;96009.08;;;30.50;36.63
52935;BME280;38802;50.198;19.796;2022-07-23T13:49:02;96006.83;;;30.45;36.50
52935;BME280;38802;50.198;19.796;2022-07-23T13:51:30;96007.59;;;30.40;36.76
52935;BME280;38802;50.198;19.796;2022-07-23T13:53:57;96011.98;;;30.39;37.23
52935;BME280;38802;50.198;19.796;2022-07-23T13:56:26;96012.60;;;30.35;37.55